< < Back
Terminal Aerodrome Forecast


Current Version              Previous Versions:   1  2  3  4  5  6  7  8  9  

Terminal Aerodrome Forecast

887
FTUS42 KILM 162300
TAFILM
TAF
KILM 162323Z 1700/1724 08009KT P6SM SKC
     FM170600 02010KT P6SM FEW010 SCT030
     FM171400 05013G20KT P6SM SCT020 BKN040=

Latest METAR

277
SAUS70 KWBC 171900 RRI
MTRILM
METAR KILM 171853Z AUTO 04012G17KT 10SM CLR 21/07 A3043 RMK AO2 SLP304
T02110072


USA.gov is the U.S. government's official web portal to all federal, state and local government web resources and services.